sensor_id;sensor_type;location;lat;lon;timestamp;P1;durP1;ratioP1;P2;durP2;ratioP2
78406;SDS011;67692;51.074;-1.790;2023-04-06T00:02:15;5.03;;;2.42;;
78406;SDS011;67692;51.074;-1.790;2023-04-06T00:04:42;6.10;;;2.45;;
78406;SDS011;67692;51.074;-1.790;2023-04-06T00:07:08;5.10;;;3.03;;
78406;SDS011;67692;51.074;-1.790;2023-04-06T00:09:35;6.63;;;2.50;;
78406;SDS011;67692;51.074;-1.790;2023-04-06T00:12:02;5.22;;;2.72;;
78406;SDS011;67692;51.074;-1.790;2023-04-06T00:14:28;7.43;;;2.67;;
78406;SDS011;67692;51.074;-1.790;2023-04-06T00:16:56;6.85;;;3.20;;
78406;SDS011;67692;51.074;-1.790;2023-04-06T00:19:23;7.25;;;2.75;;
78406;SDS011;67692;51.074;-1.790;2023-04-06T00:21:50;6.80;;;3.00;;
78406;SDS011;67692;51.074;-1.790;2023-04-06T00:24:16;9.15;;;3.53;;
78406;SDS011;67692;51.074;-1.790;2023-04-06T00:26:43;7.03;;;3.03;;
78406;SDS011;67692;51.074;-1.790;2023-04-06T00:29:10;6.78;;;3.08;;
78406;SDS011;67692;51.074;-1.790;2023-04-06T00:31:37;5.05;;;2.88;;
78406;SDS011;67692;51.074;-1.790;2023-04-06T00:34:05;5.55;;;2.85;;
78406;SDS011;67692;51.074;-1.790;2023-04-06T00:36:32;4.32;;;2.47;;
78406;SDS011;67692;51.074;-1.790;2023-04-06T00:38:58;6.13;;;2.72;;
78406;SDS011;67692;51.074;-1.790;2023-04-06T00:41:25;5.13;;;2.42;;
78406;SDS011;67692;51.074;-1.790;2023-04-06T00:43:53;4.57;;;2.50;;
78406;SDS011;67692;51.074;-1.790;2023-04-06T00:46:20;4.38;;;1.92;;
78406;SDS011;67692;51.074;-1.790;2023-04-06T00:48:46;4.50;;;2.03;;
78406;SDS011;67692;51.074;-1.790;2023-04-06T00:51:14;5.53;;;2.00;;
78406;SDS011;67692;51.074;-1.790;2023-04-06T00:53:41;4.25;;;2.10;;
78406;SDS011;67692;51.074;-1.790;2023-04-06T00:56:08;5.65;;;2.53;;
78406;SDS011;67692;51.074;-1.790;2023-04-06T00:58:34;5.03;;;2.28;;
78406;SDS011;67692;51.074;-1.790;2023-04-06T01:01:03;6.13;;;2.55;;
78406;SDS011;67692;51.074;-1.790;2023-04-06T01:03:29;6.88;;;2.58;;
78406;SDS011;67692;51.074;-1.790;2023-04-06T01:05:56;6.65;;;3.03;;
78406;SDS011;67692;51.074;-1.790;2023-04-06T01:08:25;5.38;;;2.30;;
78406;SDS011;67692;51.074;-1.790;2023-04-06T01:10:51;4.30;;;2.20;;
78406;SDS011;67692;51.074;-1.790;2023-04-06T01:13:18;4.80;;;2.38;;
78406;SDS011;67692;51.074;-1.790;2023-04-06T01:15:45;4.72;;;2.17;;
78406;SDS011;67692;51.074;-1.790;2023-04-06T01:18:13;3.97;;;2.10;;
78406;SDS011;67692;51.074;-1.790;2023-04-06T01:20:39;4.70;;;1.83;;
78406;SDS011;67692;51.074;-1.790;2023-04-06T01:23:08;4.70;;;1.90;;
78406;SDS011;67692;51.074;-1.790;2023-04-06T01:25:34;4.43;;;1.88;;
78406;SDS011;67692;51.074;-1.790;2023-04-06T01:28:01;4.50;;;1.98;;
78406;SDS011;67692;51.074;-1.790;2023-04-06T01:30:28;3.35;;;1.50;;
78406;SDS011;67692;51.074;-1.790;2023-04-06T01:32:55;3.33;;;1.30;;
78406;SDS011;67692;51.074;-1.790;2023-04-06T01:35:22;2.97;;;1.33;;
78406;SDS011;67692;51.074;-1.790;2023-04-06T01:37:48;2.88;;;1.42;;
78406;SDS011;67692;51.074;-1.790;2023-04-06T01:40:16;3.38;;;1.17;;
78406;SDS011;67692;51.074;-1.790;2023-04-06T01:42:43;3.03;;;1.20;;
78406;SDS011;67692;51.074;-1.790;2023-04-06T01:45:10;3.00;;;1.15;;
78406;SDS011;67692;51.074;-1.790;2023-04-06T01:47:37;2.58;;;1.23;;
78406;SDS011;67692;51.074;-1.790;2023-04-06T01:50:04;3.67;;;1.67;;
78406;SDS011;67692;51.074;-1.790;2023-04-06T01:52:32;2.35;;;1.05;;
78406;SDS011;67692;51.074;-1.790;2023-04-06T01:54:59;3.10;;;1.27;;
78406;SDS011;67692;51.074;-1.790;2023-04-06T01:57:27;3.30;;;1.65;;
78406;SDS011;67692;51.074;-1.790;2023-04-06T01:59:54;3.92;;;1.70;;
78406;SDS011;67692;51.074;-1.790;2023-04-06T02:02:20;4.03;;;1.77;;
78406;SDS011;67692;51.074;-1.790;2023-04-06T02:04:47;3.80;;;1.80;;
78406;SDS011;67692;51.074;-1.790;2023-04-06T02:07:14;3.85;;;1.83;;
78406;SDS011;67692;51.074;-1.790;2023-04-06T02:09:41;4.75;;;2.35;;
78406;SDS011;67692;51.074;-1.790;2023-04-06T02:12:07;3.80;;;2.05;;
78406;SDS011;67692;51.074;-1.790;2023-04-06T02:14:36;3.75;;;1.88;;
78406;SDS011;67692;51.074;-1.790;2023-04-06T02:17:02;5.53;;;2.10;;
78406;SDS011;67692;51.074;-1.790;2023-04-06T02:19:29;5.18;;;1.98;;
78406;SDS011;67692;51.074;-1.790;2023-04-06T02:21:56;5.22;;;2.28;;
78406;SDS011;67692;51.074;-1.790;2023-04-06T02:24:23;3.88;;;1.90;;
78406;SDS011;67692;51.074;-1.790;2023-04-06T02:26:49;4.65;;;2.15;;
78406;SDS011;67692;51.074;-1.790;2023-04-06T02:29:16;4.95;;;2.50;;
78406;SDS011;67692;51.074;-1.790;2023-04-06T02:31:44;4.25;;;2.03;;
78406;SDS011;67692;51.074;-1.790;2023-04-06T02:34:10;4.47;;;2.05;;
78406;SDS011;67692;51.074;-1.790;2023-04-06T02:36:42;4.93;;;2.33;;
78406;SDS011;67692;51.074;-1.790;2023-04-06T02:39:09;6.45;;;2.13;;
78406;SDS011;67692;51.074;-1.790;2023-04-06T02:41:36;3.85;;;1.75;;
78406;SDS011;67692;51.074;-1.790;2023-04-06T02:44:03;5.32;;;1.85;;
78406;SDS011;67692;51.074;-1.790;2023-04-06T02:46:30;4.25;;;1.50;;
78406;SDS011;67692;51.074;-1.790;2023-04-06T02:48:58;3.70;;;1.42;;
78406;SDS011;67692;51.074;-1.790;2023-04-06T02:51:25;3.45;;;1.33;;
78406;SDS011;67692;51.074;-1.790;2023-04-06T02:53:52;3.55;;;1.50;;
78406;SDS011;67692;51.074;-1.790;2023-04-06T02:56:18;3.67;;;1.60;;
78406;SDS011;67692;51.074;-1.790;2023-04-06T02:58:46;3.28;;;1.50;;
78406;SDS011;67692;51.074;-1.790;2023-04-06T03:01:12;4.35;;;1.92;;
78406;SDS011;67692;51.074;-1.790;2023-04-06T03:03:39;4.00;;;1.67;;
78406;SDS011;67692;51.074;-1.790;2023-04-06T03:06:07;4.22;;;1.77;;
78406;SDS011;67692;51.074;-1.790;2023-04-06T03:08:34;3.53;;;1.60;;
78406;SDS011;67692;51.074;-1.790;2023-04-06T03:11:01;4.38;;;1.73;;
78406;SDS011;67692;51.074;-1.790;2023-04-06T03:13:28;4.15;;;1.70;;
78406;SDS011;67692;51.074;-1.790;2023-04-06T03:15:55;5.20;;;1.90;;
78406;SDS011;67692;51.074;-1.790;2023-04-06T03:18:22;3.80;;;1.70;;
78406;SDS011;67692;51.074;-1.790;2023-04-06T03:20:49;3.63;;;1.52;;
78406;SDS011;67692;51.074;-1.790;2023-04-06T03:23:20;3.78;;;1.60;;
78406;SDS011;67692;51.074;-1.790;2023-04-06T03:25:46;5.72;;;1.73;;
78406;SDS011;67692;51.074;-1.790;2023-04-06T03:28:13;3.85;;;1.40;;
78406;SDS011;67692;51.074;-1.790;2023-04-06T03:30:40;3.55;;;1.65;;
78406;SDS011;67692;51.074;-1.790;2023-04-06T03:33:06;4.32;;;1.48;;
78406;SDS011;67692;51.074;-1.790;2023-04-06T03:35:33;4.22;;;1.50;;
78406;SDS011;67692;51.074;-1.790;2023-04-06T03:38:01;4.53;;;1.48;;
78406;SDS011;67692;51.074;-1.790;2023-04-06T03:40:29;4.35;;;1.50;;
78406;SDS011;67692;51.074;-1.790;2023-04-06T03:42:56;3.42;;;1.40;;
78406;SDS011;67692;51.074;-1.790;2023-04-06T03:45:22;3.00;;;1.40;;
78406;SDS011;67692;51.074;-1.790;2023-04-06T03:47:49;4.45;;;1.55;;
78406;SDS011;67692;51.074;-1.790;2023-04-06T03:50:16;6.07;;;1.60;;
78406;SDS011;67692;51.074;-1.790;2023-04-06T03:52:42;5.93;;;1.98;;
78406;SDS011;67692;51.074;-1.790;2023-04-06T03:55:09;3.65;;;1.50;;
78406;SDS011;67692;51.074;-1.790;2023-04-06T03:57:37;3.95;;;1.77;;
78406;SDS011;67692;51.074;-1.790;2023-04-06T04:00:04;3.63;;;1.73;;
78406;SDS011;67692;51.074;-1.790;2023-04-06T04:02:32;4.43;;;1.60;;
78406;SDS011;67692;51.074;-1.790;2023-04-06T04:04:58;3.60;;;1.30;;
78406;SDS011;67692;51.074;-1.790;2023-04-06T04:07:25;3.83;;;1.50;;
78406;SDS011;67692;51.074;-1.790;2023-04-06T04:09:52;2.95;;;1.13;;
78406;SDS011;67692;51.074;-1.790;2023-04-06T04:12:18;2.60;;;1.08;;
78406;SDS011;67692;51.074;-1.790;2023-04-06T04:14:46;2.28;;;0.70;;
78406;SDS011;67692;51.074;-1.790;2023-04-06T04:17:13;0.93;;;0.55;;
78406;SDS011;67692;51.074;-1.790;2023-04-06T04:19:40;1.83;;;0.77;;
78406;SDS011;67692;51.074;-1.790;2023-04-06T04:22:06;2.60;;;0.93;;
78406;SDS011;67692;51.074;-1.790;2023-04-06T04:24:33;1.83;;;0.80;;
78406;SDS011;67692;51.074;-1.790;2023-04-06T04:27:00;3.50;;;1.00;;
78406;SDS011;67692;51.074;-1.790;2023-04-06T04:29:26;1.45;;;0.63;;
78406;SDS011;67692;51.074;-1.790;2023-04-06T04:31:54;1.42;;;0.70;;
78406;SDS011;67692;51.074;-1.790;2023-04-06T04:34:21;1.10;;;0.52;;
78406;SDS011;67692;51.074;-1.790;2023-04-06T04:36:50;1.63;;;0.70;;
78406;SDS011;67692;51.074;-1.790;2023-04-06T04:39:16;4.38;;;0.70;;
78406;SDS011;67692;51.074;-1.790;2023-04-06T04:41:43;3.78;;;0.60;;
78406;SDS011;67692;51.074;-1.790;2023-04-06T04:44:10;2.50;;;0.50;;
78406;SDS011;67692;51.074;-1.790;2023-04-06T04:46:37;2.28;;;0.63;;
78406;SDS011;67692;51.074;-1.790;2023-04-06T04:49:05;1.92;;;0.30;;
78406;SDS011;67692;51.074;-1.790;2023-04-06T04:51:31;3.00;;;0.57;;
78406;SDS011;67692;51.074;-1.790;2023-04-06T04:53:58;3.03;;;0.57;;
78406;SDS011;67692;51.074;-1.790;2023-04-06T04:56:25;2.40;;;0.73;;
78406;SDS011;67692;51.074;-1.790;2023-04-06T04:58:52;2.78;;;0.73;;
78406;SDS011;67692;51.074;-1.790;2023-04-06T05:01:19;2.72;;;0.60;;
78406;SDS011;67692;51.074;-1.790;2023-04-06T05:03:45;1.33;;;0.68;;
78406;SDS011;67692;51.074;-1.790;2023-04-06T05:06:14;3.30;;;0.82;;
78406;SDS011;67692;51.074;-1.790;2023-04-06T05:08:41;3.03;;;0.77;;
78406;SDS011;67692;51.074;-1.790;2023-04-06T05:11:08;2.50;;;0.70;;
78406;SDS011;67692;51.074;-1.790;2023-04-06T05:13:35;5.10;;;0.77;;
78406;SDS011;67692;51.074;-1.790;2023-04-06T05:16:01;4.78;;;0.63;;
78406;SDS011;67692;51.074;-1.790;2023-04-06T05:18:28;2.95;;;0.68;;
78406;SDS011;67692;51.074;-1.790;2023-04-06T05:20:55;2.08;;;0.68;;
78406;SDS011;67692;51.074;-1.790;2023-04-06T05:23:23;1.63;;;0.60;;
78406;SDS011;67692;51.074;-1.790;2023-04-06T05:25:50;5.10;;;0.82;;
78406;SDS011;67692;51.074;-1.790;2023-04-06T05:28:17;4.45;;;1.10;;
78406;SDS011;67692;51.074;-1.790;2023-04-06T05:30:44;3.75;;;1.10;;
78406;SDS011;67692;51.074;-1.790;2023-04-06T05:33:11;3.17;;;1.05;;
78406;SDS011;67692;51.074;-1.790;2023-04-06T05:35:38;4.38;;;1.48;;
78406;SDS011;67692;51.074;-1.790;2023-04-06T05:38:07;2.55;;;0.70;;
78406;SDS011;67692;51.074;-1.790;2023-04-06T05:40:36;4.57;;;1.10;;
78406;SDS011;67692;51.074;-1.790;2023-04-06T05:43:03;4.20;;;1.15;;
78406;SDS011;67692;51.074;-1.790;2023-04-06T05:45:30;7.50;;;1.25;;
78406;SDS011;67692;51.074;-1.790;2023-04-06T05:47:56;5.72;;;0.95;;
78406;SDS011;67692;51.074;-1.790;2023-04-06T05:50:23;3.47;;;0.68;;
78406;SDS011;67692;51.074;-1.790;2023-04-06T05:52:49;4.88;;;1.05;;
78406;SDS011;67692;51.074;-1.790;2023-04-06T05:55:16;5.60;;;0.82;;
78406;SDS011;67692;51.074;-1.790;2023-04-06T05:57:44;5.45;;;0.77;;
78406;SDS011;67692;51.074;-1.790;2023-04-06T06:00:11;4.00;;;1.05;;
78406;SDS011;67692;51.074;-1.790;2023-04-06T06:02:39;5.43;;;1.10;;
78406;SDS011;67692;51.074;-1.790;2023-04-06T06:05:07;5.38;;;0.82;;
78406;SDS011;67692;51.074;-1.790;2023-04-06T06:07:34;2.35;;;0.82;;
78406;SDS011;67692;51.074;-1.790;2023-04-06T06:10:01;6.03;;;0.85;;
78406;SDS011;67692;51.074;-1.790;2023-04-06T06:12:27;7.85;;;0.90;;
78406;SDS011;67692;51.074;-1.790;2023-04-06T06:14:56;13.10;;;1.55;;
78406;SDS011;67692;51.074;-1.790;2023-04-06T06:17:22;9.25;;;1.23;;
78406;SDS011;67692;51.074;-1.790;2023-04-06T06:19:49;8.05;;;1.52;;
78406;SDS011;67692;51.074;-1.790;2023-04-06T06:22:16;5.43;;;1.17;;
78406;SDS011;67692;51.074;-1.790;2023-04-06T06:24:42;5.22;;;1.20;;
78406;SDS011;67692;51.074;-1.790;2023-04-06T06:27:09;7.38;;;1.08;;
78406;SDS011;67692;51.074;-1.790;2023-04-06T06:29:35;9.82;;;1.30;;
78406;SDS011;67692;51.074;-1.790;2023-04-06T06:32:04;10.35;;;1.23;;
78406;SDS011;67692;51.074;-1.790;2023-04-06T06:34:30;6.30;;;1.20;;
78406;SDS011;67692;51.074;-1.790;2023-04-06T06:36:57;4.63;;;1.00;;
78406;SDS011;67692;51.074;-1.790;2023-04-06T06:39:24;8.63;;;1.50;;
78406;SDS011;67692;51.074;-1.790;2023-04-06T06:41:51;7.53;;;1.45;;
78406;SDS011;67692;51.074;-1.790;2023-04-06T06:44:19;5.93;;;1.80;;
78406;SDS011;67692;51.074;-1.790;2023-04-06T06:46:46;6.90;;;1.60;;
78406;SDS011;67692;51.074;-1.790;2023-04-06T06:49:15;9.90;;;1.63;;
78406;SDS011;67692;51.074;-1.790;2023-04-06T06:51:42;12.60;;;1.60;;
78406;SDS011;67692;51.074;-1.790;2023-04-06T06:54:08;14.90;;;1.65;;
78406;SDS011;67692;51.074;-1.790;2023-04-06T06:56:35;8.73;;;1.52;;
78406;SDS011;67692;51.074;-1.790;2023-04-06T06:59:03;8.40;;;1.52;;
78406;SDS011;67692;51.074;-1.790;2023-04-06T07:01:30;6.47;;;1.80;;
78406;SDS011;67692;51.074;-1.790;2023-04-06T07:03:58;10.60;;;1.50;;
78406;SDS011;67692;51.074;-1.790;2023-04-06T07:06:26;15.35;;;2.10;;
78406;SDS011;67692;51.074;-1.790;2023-04-06T07:08:52;7.68;;;1.58;;
78406;SDS011;67692;51.074;-1.790;2023-04-06T07:11:19;8.40;;;1.58;;
78406;SDS011;67692;51.074;-1.790;2023-04-06T07:13:46;15.05;;;2.25;;
78406;SDS011;67692;51.074;-1.790;2023-04-06T07:16:12;10.20;;;1.85;;
78406;SDS011;67692;51.074;-1.790;2023-04-06T07:18:39;7.20;;;1.92;;
78406;SDS011;67692;51.074;-1.790;2023-04-06T07:21:06;8.23;;;1.90;;
78406;SDS011;67692;51.074;-1.790;2023-04-06T07:23:34;8.98;;;1.58;;
78406;SDS011;67692;51.074;-1.790;2023-04-06T07:26:00;15.98;;;1.85;;
78406;SDS011;67692;51.074;-1.790;2023-04-06T07:28:27;9.25;;;1.67;;
78406;SDS011;67692;51.074;-1.790;2023-04-06T07:30:54;9.40;;;1.70;;
78406;SDS011;67692;51.074;-1.790;2023-04-06T07:33:20;8.50;;;2.78;;
78406;SDS011;67692;51.074;-1.790;2023-04-06T07:35:47;8.75;;;1.73;;
78406;SDS011;67692;51.074;-1.790;2023-04-06T07:38:13;13.50;;;2.22;;
78406;SDS011;67692;51.074;-1.790;2023-04-06T07:40:41;6.55;;;1.67;;
78406;SDS011;67692;51.074;-1.790;2023-04-06T07:43:08;9.27;;;1.95;;
78406;SDS011;67692;51.074;-1.790;2023-04-06T07:45:35;13.40;;;2.40;;
78406;SDS011;67692;51.074;-1.790;2023-04-06T07:48:01;13.45;;;1.83;;
78406;SDS011;67692;51.074;-1.790;2023-04-06T07:50:28;10.75;;;2.08;;
78406;SDS011;67692;51.074;-1.790;2023-04-06T07:52:55;10.77;;;2.30;;
78406;SDS011;67692;51.074;-1.790;2023-04-06T07:55:22;8.73;;;2.13;;
78406;SDS011;67692;51.074;-1.790;2023-04-06T07:57:50;11.40;;;2.10;;
78406;SDS011;67692;51.074;-1.790;2023-04-06T08:00:17;9.77;;;2.63;;
78406;SDS011;67692;51.074;-1.790;2023-04-06T08:02:44;16.42;;;3.35;;
78406;SDS011;67692;51.074;-1.790;2023-04-06T08:05:11;11.68;;;2.20;;
78406;SDS011;67692;51.074;-1.790;2023-04-06T08:07:37;11.75;;;1.95;;
78406;SDS011;67692;51.074;-1.790;2023-04-06T08:10:04;7.75;;;2.00;;
78406;SDS011;67692;51.074;-1.790;2023-04-06T08:12:31;8.80;;;1.95;;
78406;SDS011;67692;51.074;-1.790;2023-04-06T08:15:00;17.27;;;2.20;;
78406;SDS011;67692;51.074;-1.790;2023-04-06T08:17:27;13.27;;;2.10;;
78406;SDS011;67692;51.074;-1.790;2023-04-06T08:19:55;8.68;;;2.20;;
78406;SDS011;67692;51.074;-1.790;2023-04-06T08:22:22;9.65;;;2.85;;
78406;SDS011;67692;51.074;-1.790;2023-04-06T08:24:49;16.63;;;2.33;;
78406;SDS011;67692;51.074;-1.790;2023-04-06T08:27:16;14.95;;;2.65;;
78406;SDS011;67692;51.074;-1.790;2023-04-06T08:29:43;11.93;;;1.90;;
78406;SDS011;67692;51.074;-1.790;2023-04-06T08:32:11;10.95;;;2.22;;
78406;SDS011;67692;51.074;-1.790;2023-04-06T08:34:37;13.65;;;2.53;;
78406;SDS011;67692;51.074;-1.790;2023-04-06T08:37:04;7.18;;;1.77;;
78406;SDS011;67692;51.074;-1.790;2023-04-06T08:39:31;10.55;;;2.15;;
78406;SDS011;67692;51.074;-1.790;2023-04-06T08:41:59;12.25;;;1.88;;
78406;SDS011;67692;51.074;-1.790;2023-04-06T08:44:28;12.13;;;2.30;;
78406;SDS011;67692;51.074;-1.790;2023-04-06T08:46:54;12.77;;;2.53;;
78406;SDS011;67692;51.074;-1.790;2023-04-06T08:49:23;15.63;;;2.05;;
78406;SDS011;67692;51.074;-1.790;2023-04-06T08:51:49;9.65;;;1.88;;
78406;SDS011;67692;51.074;-1.790;2023-04-06T08:54:17;13.20;;;1.77;;
78406;SDS011;67692;51.074;-1.790;2023-04-06T08:56:43;10.15;;;2.17;;
78406;SDS011;67692;51.074;-1.790;2023-04-06T08:59:10;15.43;;;2.85;;
78406;SDS011;67692;51.074;-1.790;2023-04-06T09:01:38;8.80;;;1.45;;
78406;SDS011;67692;51.074;-1.790;2023-04-06T09:04:06;14.50;;;2.05;;
78406;SDS011;67692;51.074;-1.790;2023-04-06T09:06:37;10.32;;;2.22;;
78406;SDS011;67692;51.074;-1.790;2023-04-06T09:09:05;9.70;;;1.80;;
78406;SDS011;67692;51.074;-1.790;2023-04-06T09:11:41;10.18;;;1.95;;
78406;SDS011;67692;51.074;-1.790;2023-04-06T09:14:09;8.38;;;1.50;;
78406;SDS011;67692;51.074;-1.790;2023-04-06T09:16:38;8.52;;;1.73;;
78406;SDS011;67692;51.074;-1.790;2023-04-06T09:19:06;10.35;;;1.90;;
78406;SDS011;67692;51.074;-1.790;2023-04-06T09:21:32;10.48;;;2.58;;
78406;SDS011;67692;51.074;-1.790;2023-04-06T09:24:01;11.52;;;2.20;;
78406;SDS011;67692;51.074;-1.790;2023-04-06T09:26:29;8.70;;;1.90;;
78406;SDS011;67692;51.074;-1.790;2023-04-06T09:28:58;12.10;;;2.03;;
78406;SDS011;67692;51.074;-1.790;2023-04-06T09:31:26;10.13;;;1.77;;
78406;SDS011;67692;51.074;-1.790;2023-04-06T09:33:54;9.93;;;2.30;;
78406;SDS011;67692;51.074;-1.790;2023-04-06T09:36:28;8.50;;;1.90;;
78406;SDS011;67692;51.074;-1.790;2023-04-06T09:38:56;9.05;;;2.15;;
78406;SDS011;67692;51.074;-1.790;2023-04-06T09:41:26;10.38;;;2.00;;
78406;SDS011;67692;51.074;-1.790;2023-04-06T09:44:01;10.55;;;2.30;;
78406;SDS011;67692;51.074;-1.790;2023-04-06T09:46:30;8.48;;;1.80;;
78406;SDS011;67692;51.074;-1.790;2023-04-06T09:48:59;9.65;;;1.95;;
78406;SDS011;67692;51.074;-1.790;2023-04-06T09:51:26;12.82;;;2.15;;
78406;SDS011;67692;51.074;-1.790;2023-04-06T09:53:57;13.75;;;2.00;;
78406;SDS011;67692;51.074;-1.790;2023-04-06T09:56:28;11.15;;;2.40;;
78406;SDS011;67692;51.074;-1.790;2023-04-06T09:59:01;9.20;;;1.90;;
78406;SDS011;67692;51.074;-1.790;2023-04-06T10:01:29;9.20;;;1.73;;
78406;SDS011;67692;51.074;-1.790;2023-04-06T10:04:01;9.23;;;2.25;;
78406;SDS011;67692;51.074;-1.790;2023-04-06T10:06:37;13.50;;;2.28;;
78406;SDS011;67692;51.074;-1.790;2023-04-06T10:09:04;11.27;;;2.53;;
78406;SDS011;67692;51.074;-1.790;2023-04-06T10:11:35;9.20;;;2.13;;
78406;SDS011;67692;51.074;-1.790;2023-04-06T10:14:02;12.73;;;1.60;;
78406;SDS011;67692;51.074;-1.790;2023-04-06T10:16:29;6.85;;;1.40;;
78406;SDS011;67692;51.074;-1.790;2023-04-06T10:18:58;6.30;;;1.63;;
78406;SDS011;67692;51.074;-1.790;2023-04-06T10:21:31;10.70;;;2.30;;
78406;SDS011;67692;51.074;-1.790;2023-04-06T10:24:00;13.65;;;2.03;;
78406;SDS011;67692;51.074;-1.790;2023-04-06T10:26:28;6.70;;;1.77;;
78406;SDS011;67692;51.074;-1.790;2023-04-06T10:29:01;7.88;;;1.58;;
78406;SDS011;67692;51.074;-1.790;2023-04-06T10:31:29;8.13;;;1.90;;
78406;SDS011;67692;51.074;-1.790;2023-04-06T10:33:56;9.38;;;1.73;;
78406;SDS011;67692;51.074;-1.790;2023-04-06T10:36:24;9.18;;;1.75;;
78406;SDS011;67692;51.074;-1.790;2023-04-06T10:38:56;14.52;;;2.20;;
78406;SDS011;67692;51.074;-1.790;2023-04-06T10:41:24;10.00;;;1.58;;
78406;SDS011;67692;51.074;-1.790;2023-04-06T10:43:59;7.38;;;1.60;;
78406;SDS011;67692;51.074;-1.790;2023-04-06T10:46:27;14.95;;;2.80;;
78406;SDS011;67692;51.074;-1.790;2023-04-06T10:48:55;11.90;;;1.77;;
78406;SDS011;67692;51.074;-1.790;2023-04-06T10:51:24;7.43;;;1.92;;
78406;SDS011;67692;51.074;-1.790;2023-04-06T10:53:52;8.45;;;1.50;;
78406;SDS011;67692;51.074;-1.790;2023-04-06T10:56:21;7.90;;;1.95;;
78406;SDS011;67692;51.074;-1.790;2023-04-06T10:58:51;13.35;;;1.65;;
78406;SDS011;67692;51.074;-1.790;2023-04-06T11:01:22;12.52;;;1.70;;
78406;SDS011;67692;51.074;-1.790;2023-04-06T11:03:51;10.50;;;2.10;;
78406;SDS011;67692;51.074;-1.790;2023-04-06T11:06:19;12.55;;;1.88;;
78406;SDS011;67692;51.074;-1.790;2023-04-06T11:08:47;9.05;;;1.48;;
78406;SDS011;67692;51.074;-1.790;2023-04-06T11:11:15;11.73;;;1.80;;
78406;SDS011;67692;51.074;-1.790;2023-04-06T11:13:44;11.70;;;1.52;;
78406;SDS011;67692;51.074;-1.790;2023-04-06T11:16:12;5.68;;;1.17;;
78406;SDS011;67692;51.074;-1.790;2023-04-06T11:18:47;16.55;;;1.80;;
78406;SDS011;67692;51.074;-1.790;2023-04-06T11:21:15;8.68;;;1.50;;
78406;SDS011;67692;51.074;-1.790;2023-04-06T11:23:42;7.07;;;1.58;;
78406;SDS011;67692;51.074;-1.790;2023-04-06T11:26:10;7.22;;;1.38;;
78406;SDS011;67692;51.074;-1.790;2023-04-06T11:28:37;7.72;;;1.40;;
78406;SDS011;67692;51.074;-1.790;2023-04-06T11:31:05;11.15;;;1.20;;
78406;SDS011;67692;51.074;-1.790;2023-04-06T11:33:34;5.47;;;1.05;;
78406;SDS011;67692;51.074;-1.790;2023-04-06T11:38:31;6.15;;;1.50;;
78406;SDS011;67692;51.074;-1.790;2023-04-06T11:40:58;9.98;;;1.00;;
78406;SDS011;67692;51.074;-1.790;2023-04-06T11:43:28;6.00;;;0.93;;
78406;SDS011;67692;51.074;-1.790;2023-04-06T11:46:01;9.23;;;2.35;;
78406;SDS011;67692;51.074;-1.790;2023-04-06T11:48:29;6.25;;;1.00;;
78406;SDS011;67692;51.074;-1.790;2023-04-06T11:50:56;11.25;;;2.00;;
78406;SDS011;67692;51.074;-1.790;2023-04-06T11:53:27;3.83;;;0.70;;
78406;SDS011;67692;51.074;-1.790;2023-04-06T11:55:54;5.70;;;1.42;;
78406;SDS011;67692;51.074;-1.790;2023-04-06T11:58:21;8.80;;;1.58;;
78406;SDS011;67692;51.074;-1.790;2023-04-06T12:00:47;6.38;;;1.08;;
78406;SDS011;67692;51.074;-1.790;2023-04-06T12:03:14;3.47;;;1.50;;
78406;SDS011;67692;51.074;-1.790;2023-04-06T12:05:43;11.80;;;1.77;;
78406;SDS011;67692;51.074;-1.790;2023-04-06T12:08:10;6.93;;;0.90;;
78406;SDS011;67692;51.074;-1.790;2023-04-06T12:10:38;2.80;;;0.60;;
78406;SDS011;67692;51.074;-1.790;2023-04-06T12:13:05;5.75;;;1.00;;
78406;SDS011;67692;51.074;-1.790;2023-04-06T12:15:31;5.72;;;0.70;;
78406;SDS011;67692;51.074;-1.790;2023-04-06T12:17:58;13.95;;;2.40;;
78406;SDS011;67692;51.074;-1.790;2023-04-06T12:20:25;4.30;;;0.85;;
78406;SDS011;67692;51.074;-1.790;2023-04-06T12:22:51;10.45;;;1.23;;
78406;SDS011;67692;51.074;-1.790;2023-04-06T12:25:18;3.42;;;1.00;;
78406;SDS011;67692;51.074;-1.790;2023-04-06T12:27:46;5.05;;;0.98;;
78406;SDS011;67692;51.074;-1.790;2023-04-06T12:30:13;5.78;;;0.80;;
78406;SDS011;67692;51.074;-1.790;2023-04-06T12:32:40;7.70;;;1.00;;
78406;SDS011;67692;51.074;-1.790;2023-04-06T12:35:07;4.65;;;0.60;;
78406;SDS011;67692;51.074;-1.790;2023-04-06T12:37:36;5.30;;;0.60;;
78406;SDS011;67692;51.074;-1.790;2023-04-06T12:40:03;5.75;;;0.80;;
78406;SDS011;67692;51.074;-1.790;2023-04-06T12:42:31;4.28;;;0.80;;
78406;SDS011;67692;51.074;-1.790;2023-04-06T12:44:59;3.28;;;1.23;;
78406;SDS011;67692;51.074;-1.790;2023-04-06T12:47:25;3.90;;;0.75;;
78406;SDS011;67692;51.074;-1.790;2023-04-06T12:49:52;3.65;;;0.82;;
78406;SDS011;67692;51.074;-1.790;2023-04-06T12:52:19;3.72;;;0.75;;
78406;SDS011;67692;51.074;-1.790;2023-04-06T12:54:47;3.13;;;0.75;;
78406;SDS011;67692;51.074;-1.790;2023-04-06T12:57:14;3.40;;;0.95;;
78406;SDS011;67692;51.074;-1.790;2023-04-06T12:59:42;3.63;;;1.23;;
78406;SDS011;67692;51.074;-1.790;2023-04-06T13:02:10;2.78;;;0.70;;
78406;SDS011;67692;51.074;-1.790;2023-04-06T13:04:37;1.70;;;0.60;;
78406;SDS011;67692;51.074;-1.790;2023-04-06T13:07:04;3.58;;;0.63;;
78406;SDS011;67692;51.074;-1.790;2023-04-06T13:09:31;5.80;;;1.20;;
78406;SDS011;67692;51.074;-1.790;2023-04-06T13:11:58;2.88;;;0.35;;
78406;SDS011;67692;51.074;-1.790;2023-04-06T13:14:26;4.80;;;0.68;;
78406;SDS011;67692;51.074;-1.790;2023-04-06T13:16:52;4.32;;;1.00;;
78406;SDS011;67692;51.074;-1.790;2023-04-06T13:19:20;3.72;;;0.70;;
78406;SDS011;67692;51.074;-1.790;2023-04-06T13:21:47;3.80;;;0.70;;
78406;SDS011;67692;51.074;-1.790;2023-04-06T13:24:14;6.25;;;0.65;;
78406;SDS011;67692;51.074;-1.790;2023-04-06T13:26:41;3.97;;;0.70;;
78406;SDS011;67692;51.074;-1.790;2023-04-06T13:29:07;4.30;;;0.82;;
78406;SDS011;67692;51.074;-1.790;2023-04-06T13:31:34;3.67;;;0.63;;
78406;SDS011;67692;51.074;-1.790;2023-04-06T13:34:01;9.00;;;1.45;;
78406;SDS011;67692;51.074;-1.790;2023-04-06T13:36:29;4.85;;;0.88;;
78406;SDS011;67692;51.074;-1.790;2023-04-06T13:38:56;4.35;;;0.88;;
78406;SDS011;67692;51.074;-1.790;2023-04-06T13:41:23;2.45;;;0.45;;
78406;SDS011;67692;51.074;-1.790;2023-04-06T13:43:51;7.85;;;0.80;;
78406;SDS011;67692;51.074;-1.790;2023-04-06T13:46:18;4.53;;;0.95;;
78406;SDS011;67692;51.074;-1.790;2023-04-06T13:48:44;2.63;;;0.60;;
78406;SDS011;67692;51.074;-1.790;2023-04-06T13:51:12;1.85;;;0.70;;
78406;SDS011;67692;51.074;-1.790;2023-04-06T13:53:41;7.57;;;1.10;;
78406;SDS011;67692;51.074;-1.790;2023-04-06T13:56:08;6.15;;;0.73;;
78406;SDS011;67692;51.074;-1.790;2023-04-06T13:58:34;3.72;;;0.60;;
78406;SDS011;67692;51.074;-1.790;2023-04-06T14:01:02;5.45;;;1.00;;
78406;SDS011;67692;51.074;-1.790;2023-04-06T14:03:29;4.03;;;0.70;;
78406;SDS011;67692;51.074;-1.790;2023-04-06T14:05:56;3.53;;;0.50;;
78406;SDS011;67692;51.074;-1.790;2023-04-06T14:08:23;4.20;;;0.80;;
78406;SDS011;67692;51.074;-1.790;2023-04-06T14:10:51;5.65;;;0.90;;
78406;SDS011;67692;51.074;-1.790;2023-04-06T14:13:19;4.28;;;0.77;;
78406;SDS011;67692;51.074;-1.790;2023-04-06T14:15:45;4.03;;;0.60;;
78406;SDS011;67692;51.074;-1.790;2023-04-06T14:18:12;5.07;;;0.60;;
78406;SDS011;67692;51.074;-1.790;2023-04-06T14:20:39;2.33;;;0.60;;
78406;SDS011;67692;51.074;-1.790;2023-04-06T14:23:06;6.22;;;1.23;;
78406;SDS011;67692;51.074;-1.790;2023-04-06T14:25:33;2.50;;;0.77;;
78406;SDS011;67692;51.074;-1.790;2023-04-06T14:28:01;5.38;;;0.63;;
78406;SDS011;67692;51.074;-1.790;2023-04-06T14:30:29;1.58;;;0.47;;
78406;SDS011;67692;51.074;-1.790;2023-04-06T14:32:56;2.33;;;0.52;;
78406;SDS011;67692;51.074;-1.790;2023-04-06T14:35:24;1.77;;;0.35;;